Saturday, January 20, 2018, 8:25 AM EST
Back to Local

KASH, Nashua, Boire Field Airport

Location: Nashua, NH, United States Lat: 42.782
Local Time: 8:25 AM EST (13:25 GMT) Lon: -71.515
Time Zone: US/Eastern Elev: 200 ft

Show me the last for .
Show Decoded

2018-01-20 07:56 METAR KASH 201256Z VRB04KT 10SM CLR 01/M05 A2965 RMK AO2 SLP052 T00061050 =
2018-01-20 06:56 METAR KASH 201156Z 00000KT 10SM CLR 00/M06 A2968 RMK AO2 SLP060 T00001056 10000
                 21033 56026 =
2018-01-20 05:56 METAR KASH 201056Z AUTO 00000KT 10SM CLR M01/M05 A2968 RMK AO2 SLP063 T10061050
                 =
2018-01-20 04:56 METAR KASH 200956Z AUTO VRB03KT 10SM CLR M02/M06 A2971 RMK AO2 SLP072 T10221056
                 =
2018-01-20 03:56 METAR KASH 200856Z AUTO 13004KT 10SM CLR M02/M06 A2975 RMK AO2 PRESFR SLP087
                 T10221061 58019 =
2018-01-20 01:56 METAR KASH 200656Z AUTO VRB03KT 10SM CLR M03/M06 A2981 RMK AO2 SLP106 T10281061
                 =
2018-01-20 00:56 METAR KASH 200556Z AUTO 14003KT 10SM CLR M03/M06 A2981 RMK AO2 SLP106 T10331056
                 11006 21072 58031 =
2018-01-19 23:56 METAR KASH 200456Z AUTO 14003KT 10SM CLR M06/M07 A2985 RMK AO2 SLP120 T10611067
                 =
2018-01-19 22:56 METAR KASH 200356Z AUTO 12004KT 10SM CLR M07/M08 A2989 RMK AO2 SLP133 T10671083
                 400111139 =
2018-01-19 21:56 METAR KASH 200256Z AUTO 00000KT 10SM CLR M04/M07 A2990 RMK AO2 SLP138 T10441067
                 58007 =
2018-01-19 20:56 METAR KASH 200156Z VRB03KT 10SM BKN037 M02/M06 A2992 RMK AO2 SLP144 T10171056 =
2018-01-19 19:56 METAR KASH 200056Z 00000KT 10SM OVC039 M01/M06 A2993 RMK AO2 SLP147 T10111056 =
2018-01-19 18:56 METAR KASH 192356Z 00000KT 10SM OVC039 M01/M06 A2992 RMK AO2 SLP144 T10111056
                 10011 21017 55002 =
2018-01-19 17:56 METAR KASH 192256Z 00000KT 10SM OVC039 M02/M06 A2992 RMK AO2 SLP142 T10171056 =
2018-01-19 16:56 METAR KASH 192156Z 00000KT 10SM OVC039 M01/M06 A2993 =
2018-01-19 15:56 METAR KASH 192056Z 29004KT 10SM OVC037 00/M06 A2993 RMK AO2 SLP147 T00001056
                 53006 =
2018-01-19 14:56 METAR KASH 191956Z 32006KT 10SM OVC035 00/M07 A2993 RMK AO2 SLP145 T00001067 =
2018-01-19 13:56 METAR KASH 191856Z 31010KT 10SM OVC031 01/M06 A2991 RMK AO2 SLP139 T00061061 =
2018-01-19 12:56 METAR KASH 191756Z 32007KT 10SM OVC037 01/M06 A2991 RMK AO2 SLP141 T00111061
                 10011 21078 58021 =
2018-01-19 11:56 METAR KASH 191656Z 30007KT 10SM OVC037 00/M07 A2994 RMK AO2 SLP149 T00001067 =
2018-01-19 10:56 METAR KASH 191556Z 31004KT 10SM OVC039 M01/M06 A2996 RMK AO2 SLP158 T10061061 =
2018-01-19 09:56 METAR KASH 191456Z 00000KT 10SM OVC041 M01/M04 A2998 RMK AO2 SLP162 T10061044
                 50006 =
2018-01-19 08:56 METAR KASH 191356Z 00000KT 10SM OVC043 M03/M04 A2998 RMK AO2 SLP163 T10331039 =

Support USWX by starting your Amazon purchase here.